Time;durP1;ratioP1;P1;durP2;ratioP2;P2;SDS_P1;SDS_P2;PMS_P1;PMS_P2;Temp;Humidity;BMP_temperature;BMP_pressure;BME280_temperature;BME280_humidity;BME280_pressure;Samples;Min_cycle;Max_cycle;Signal;HPM_P1;HPM_P2
2022/01/28 00:00:07;;;;;;;3.67;1.85;;;;;;;3.73;100.00;99022.34;5071313;28;20041;-79
2022/01/28 00:03:10;;;;;;;3.90;2.05;;;;;;;3.63;100.00;99011.19;5072007;28;20386;-79
2022/01/28 00:05:55;;;;;;;4.95;1.17;;;;;;;3.62;100.00;99017.28;5071177;28;20045;-79
2022/01/28 00:08:39;;;;;;;3.58;1.27;;;;;;;3.55;100.00;99017.34;5071273;28;20064;-79
2022/01/28 00:11:23;;;;;;;5.07;2.05;;;;;;;3.56;100.00;99019.91;5057617;28;20058;-79
2022/01/28 00:14:27;;;;;;;5.50;2.65;;;;;;;3.49;100.00;99018.25;5058582;28;20071;-79
2022/01/28 00:38:33;;;;;;;5.60;2.20;;;;;;;3.51;100.00;99017.38;5057380;28;20045;-78
2022/01/28 00:41:17;;;;;;;3.13;1.25;;;;;;;3.48;100.00;98996.69;5057956;28;20369;-81
2022/01/28 00:44:02;;;;;;;5.22;0.95;;;;;;;3.44;100.00;99017.44;5057332;28;20116;-79
2022/01/28 00:46:47;;;;;;;3.90;0.82;;;;;;;3.35;100.00;99005.44;5057311;28;20048;-79
2022/01/28 00:49:31;;;;;;;5.53;0.93;;;;;;;3.34;100.00;98989.91;5057250;28;20127;-79
2022/01/28 00:52:15;;;;;;;2.60;1.10;;;;;;;3.13;100.00;98989.22;5057150;28;20418;-78
2022/01/28 00:55:00;;;;;;;6.30;1.17;;;;;;;3.19;100.00;98998.69;5043032;28;20057;-78
2022/01/28 00:57:44;;;;;;;4.03;0.80;;;;;;;3.13;100.00;99002.16;5056835;28;20191;-79
2022/01/28 01:00:30;;;;;;;6.65;1.13;;;;;;;3.37;100.00;99005.41;5057063;28;20045;-79
2022/01/28 01:03:14;;;;;;;5.93;2.15;;;;;;;3.40;100.00;99001.06;5057096;28;20052;-79
2022/01/28 01:05:58;;;;;;;6.80;1.65;;;;;;;3.38;100.00;99002.84;5056902;28;20041;-79
2022/01/28 01:08:43;;;;;;;5.13;1.17;;;;;;;3.31;100.00;98992.53;5057572;28;20060;-79
2022/01/28 01:11:28;;;;;;;5.72;1.20;;;;;;;3.33;100.00;99001.16;5057023;28;20174;-78
2022/01/28 01:14:12;;;;;;;11.88;1.40;;;;;;;3.42;100.00;98999.34;5056982;28;20056;-79
2022/01/28 01:20:19;;;;;;;6.43;0.75;;;;;;;3.54;100.00;98984.53;5057340;28;20041;-79
2022/01/28 01:23:17;;;;;;;4.97;0.75;;;;;;;3.46;100.00;98995.84;5055864;28;20044;-79
2022/01/28 01:28:48;;;;;;;7.10;0.73;;;;;;;3.37;100.00;98989.88;5057218;28;20458;-79
2022/01/28 01:31:32;;;;;;;5.28;0.82;;;;;;;3.30;100.00;98999.44;5056404;28;20041;-78
2022/01/28 01:34:20;;;;;;;5.22;0.98;;;;;;;3.35;100.00;98994.19;5057078;28;20120;-78
2022/01/28 01:37:05;;;;;;;3.33;0.70;;;;;;;3.39;100.00;98996.78;5042228;28;20098;-79
2022/01/28 01:39:51;;;;;;;4.05;0.70;;;;;;;3.18;100.00;98984.00;5042065;28;20126;-77
2022/01/28 01:42:49;;;;;;;11.18;0.90;;;;;;;3.23;100.00;99001.22;5057036;28;20044;-79
2022/01/28 01:54:25;;;;;;;23.08;6.13;;;;;;;3.35;100.00;98976.09;5056028;28;20044;-78
2022/01/28 01:57:12;;;;;;;6.50;1.23;;;;;;;3.32;100.00;98973.56;5084282;28;20124;-78
2022/01/28 01:59:56;;;;;;;4.05;0.82;;;;;;;3.41;100.00;98983.78;5055800;28;20045;-78
2022/01/28 02:02:40;;;;;;;8.02;0.68;;;;;;;3.40;100.00;98987.28;5055754;28;20397;-78
2022/01/28 02:05:24;;;;;;;3.70;0.70;;;;;;;3.27;100.00;98965.81;5055925;28;20037;-78
2022/01/28 02:08:08;;;;;;;7.35;2.08;;;;;;;3.37;100.00;98969.16;5056461;28;20143;-78
2022/01/28 02:10:58;;;;;;;8.95;1.20;;;;;;;3.36;100.00;98955.38;5056477;28;20041;-80
2022/01/28 02:13:48;;;;;;;11.80;1.38;;;;;;;3.38;100.00;98966.59;5055756;28;20425;-78
2022/01/28 02:16:33;;;;;;;8.52;2.45;;;;;;;3.48;100.00;98962.19;5056276;28;20326;-78
2022/01/28 02:19:17;;;;;;;9.07;1.00;;;;;;;3.55;100.00;98957.78;5055485;28;20041;-78
2022/01/28 02:22:02;;;;;;;12.43;1.83;;;;;;;3.55;100.00;98953.47;5055492;28;20045;-78
2022/01/28 02:24:47;;;;;;;8.88;1.10;;;;;;;3.57;100.00;98962.06;5055448;28;20072;-79
2022/01/28 02:27:31;;;;;;;7.18;1.08;;;;;;;3.47;100.00;98963.88;5056323;28;20049;-78
2022/01/28 02:30:16;;;;;;;8.38;2.10;;;;;;;3.47;100.00;98966.47;5055608;28;20037;-79
2022/01/28 02:33:09;;;;;;;5.10;0.70;;;;;;;3.44;100.00;98965.66;5041082;28;20049;-79
2022/01/28 02:35:53;;;;;;;6.55;1.42;;;;;;;3.36;100.00;98968.31;5056061;28;20349;-79
2022/01/28 02:38:38;;;;;;;11.40;1.25;;;;;;;3.40;100.00;98988.13;5055207;28;20095;-80
2022/01/28 02:41:25;;;;;;;6.60;1.42;;;;;;;3.35;100.00;98976.97;5055287;28;20052;-80
2022/01/28 02:47:02;;;;;;;6.35;1.10;;;;;;;3.29;100.00;98971.84;5055920;28;20349;-79
2022/01/28 02:49:47;;;;;;;10.48;2.65;;;;;;;3.23;100.00;98977.06;5055870;28;20044;-81
2022/01/28 02:52:49;;;;;;;6.78;0.90;;;;;;;3.33;100.00;98980.44;5041083;28;20033;-80
2022/01/28 02:55:40;;;;;;;7.43;1.65;;;;;;;3.26;100.00;98982.22;5055820;28;20353;-80
2022/01/28 02:58:25;;;;;;;5.72;0.80;;;;;;;3.21;100.00;98973.63;5055514;28;20057;-81
2022/01/28 03:01:13;;;;;;;5.18;0.60;;;;;;;3.07;100.00;98963.41;5055006;28;20052;-79
2022/01/28 03:04:00;;;;;;;4.68;0.82;;;;;;;3.04;100.00;98992.72;5041052;28;20037;-80
2022/01/28 03:06:44;;;;;;;4.15;0.80;;;;;;;3.10;100.00;98990.97;5055827;28;20079;-80
2022/01/28 03:09:47;;;;;;;7.07;1.30;;;;;;;3.16;100.00;98999.56;5055108;28;20041;-81
2022/01/28 03:12:47;;;;;;;7.15;1.05;;;;;;;2.90;100.00;99002.34;5054957;28;20041;-80
2022/01/28 03:15:33;;;;;;;9.07;1.48;;;;;;;2.96;100.00;99004.03;5054924;28;20045;-80
2022/01/28 03:18:22;;;;;;;4.40;0.57;;;;;;;2.89;100.00;98997.16;5074679;28;20425;-78
2022/01/28 03:21:19;;;;;;;7.00;0.80;;;;;;;2.98;100.00;99007.44;5056124;28;20418;-79
2022/01/28 03:24:07;;;;;;;8.95;0.95;;;;;;;3.06;100.00;99010.84;5054781;28;20045;-80
2022/01/28 03:26:57;;;;;;;6.20;1.02;;;;;;;3.06;100.00;99017.75;5055464;28;20426;-80
2022/01/28 03:29:42;;;;;;;4.25;0.88;;;;;;;3.01;100.00;98984.13;5055421;28;20167;-81
2022/01/28 03:32:27;;;;;;;5.45;1.33;;;;;;;3.05;100.00;99006.53;5054898;28;20053;-80
2022/01/28 03:35:14;;;;;;;8.60;1.02;;;;;;;3.09;100.00;99005.66;5054590;28;20098;-80
2022/01/28 03:38:00;;;;;;;7.40;0.90;;;;;;;3.08;100.00;99009.09;5055303;28;20049;-81
2022/01/28 03:40:46;;;;;;;6.25;0.90;;;;;;;3.09;100.00;99005.66;5055473;28;20037;-80
2022/01/28 03:43:31;;;;;;;4.72;1.05;;;;;;;3.04;100.00;99016.03;5054611;28;20033;-81
2022/01/28 03:46:15;;;;;;;6.57;0.70;;;;;;;3.01;100.00;99020.34;5058458;28;20041;-80
2022/01/28 03:49:01;;;;;;;7.18;1.35;;;;;;;3.07;100.00;99025.50;5058294;28;20064;-80
2022/01/28 03:51:45;;;;;;;4.13;0.68;;;;;;;2.99;100.00;99014.31;5086697;28;20155;-80
2022/01/28 03:54:29;;;;;;;9.25;1.23;;;;;;;2.96;100.00;99027.31;5058335;28;20060;-80
2022/01/28 03:57:14;;;;;;;6.40;1.63;;;;;;;3.13;100.00;99048.75;5059037;28;20041;-80
2022/01/28 03:59:58;;;;;;;10.73;0.90;;;;;;;2.96;100.00;99025.59;5058184;28;20095;-81
2022/01/28 04:02:45;;;;;;;8.18;0.82;;;;;;;3.01;100.00;99023.81;5044114;28;20045;-80
2022/01/28 04:14:17;;;;;;;66.55;27.55;;;;;;;3.06;100.00;99034.13;5058569;28;20041;-78
2022/01/28 04:17:21;;;;;;;206.90;76.80;;;;;;;3.01;100.00;99035.88;5043914;28;20091;-79
2022/01/28 04:20:06;;;;;;;41.25;18.50;;;;;;;3.13;100.00;99051.34;5043510;28;20638;-79
2022/01/28 04:22:51;;;;;;;77.50;37.03;;;;;;;3.05;100.00;99027.22;5043814;28;20053;-79
2022/01/28 04:25:35;;;;;;;53.92;27.63;;;;;;;3.15;100.00;99059.97;5043780;28;20041;-80
2022/01/28 04:28:23;;;;;;;128.88;61.78;;;;;;;3.15;100.00;99067.72;5058298;28;20353;-79
2022/01/28 04:31:08;;;;;;;104.05;47.60;;;;;;;3.06;100.00;99061.75;5057544;28;20041;-81
2022/01/28 04:33:54;;;;;;;116.40;50.05;;;;;;;3.12;100.00;99057.38;5057402;28;20037;-79
2022/01/28 04:36:52;;;;;;;97.57;42.15;;;;;;;3.10;100.00;99058.25;5057514;28;20322;-80
2022/01/28 04:48:58;;;;;;;9.35;1.52;;;;;;;3.16;100.00;99072.00;5057982;28;20053;-79
2022/01/28 04:57:17;;;;;;;9.00;1.27;;;;;;;3.36;100.00;99086.53;5057706;28;20041;-79
2022/01/28 05:06:28;;;;;;;29.30;6.78;;;;;;;3.45;100.00;99089.94;5056960;28;20041;-78
2022/01/28 05:26:53;;;;;;;8.32;1.65;;;;;;;3.41;100.00;99110.66;5057391;28;20124;-78
2022/01/28 05:29:39;;;;;;;13.50;1.70;;;;;;;3.64;100.00;99106.19;5056467;28;20103;-78
2022/01/28 05:32:24;;;;;;;10.23;1.70;;;;;;;3.71;100.00;99109.56;5057094;28;20409;-78
2022/01/28 05:35:09;;;;;;;9.88;1.77;;;;;;;3.67;100.00;99133.75;5042266;28;20044;-78
2022/01/28 05:37:53;;;;;;;14.07;1.60;;;;;;;3.64;100.00;99129.50;5056953;28;20094;-78
2022/01/28 05:40:38;;;;;;;9.13;1.60;;;;;;;3.49;100.00;99121.81;5042347;28;20056;-78
2022/01/28 05:43:22;;;;;;;7.45;2.33;;;;;;;3.55;100.00;99118.34;5056966;28;20061;-79
2022/01/28 05:46:08;;;;;;;10.23;1.50;;;;;;;3.65;100.00;99115.66;5042109;28;20326;-78
2022/01/28 05:48:52;;;;;;;10.35;1.73;;;;;;;3.51;100.00;99118.38;5056132;28;20123;-78
2022/01/28 05:51:36;;;;;;;9.30;2.22;;;;;;;3.51;100.00;99125.28;5056180;28;20060;-79
2022/01/28 05:54:21;;;;;;;10.73;1.30;;;;;;;3.49;100.00;99125.28;5056072;28;20037;-79
2022/01/28 05:57:06;;;;;;;11.10;1.67;;;;;;;3.55;100.00;99131.28;5056003;28;20032;-79
2022/01/28 05:59:51;;;;;;;11.13;2.15;;;;;;;3.49;100.00;99125.28;5055852;28;20516;-79
2022/01/28 06:02:35;;;;;;;11.23;1.70;;;;;;;3.59;100.00;99144.19;5055946;28;20040;-80
2022/01/28 06:05:19;;;;;;;18.42;1.92;;;;;;;3.43;100.00;99138.25;5041903;28;20064;-79
2022/01/28 06:08:03;;;;;;;8.75;1.63;;;;;;;3.41;100.00;99150.38;5041262;28;20044;-80
2022/01/28 06:10:48;;;;;;;11.32;1.67;;;;;;;3.39;100.00;99138.31;5055813;28;20043;-79
2022/01/28 06:13:32;;;;;;;10.30;1.52;;;;;;;3.41;100.00;99146.91;5055641;28;20052;-80
2022/01/28 06:16:18;;;;;;;11.68;2.28;;;;;;;3.49;100.00;99163.25;5056382;28;20075;-79
2022/01/28 06:19:02;;;;;;;11.23;1.35;;;;;;;3.54;100.00;99125.22;5055821;28;20055;-80
2022/01/28 06:21:46;;;;;;;7.85;1.77;;;;;;;3.61;100.00;99167.50;5055407;28;20040;-82
2022/01/28 06:24:31;;;;;;;8.38;1.52;;;;;;;3.59;100.00;99156.28;5054349;28;20613;-77
2022/01/28 06:27:16;;;;;;;16.23;1.63;;;;;;;3.64;100.00;99177.81;5054442;28;20036;-77
2022/01/28 06:30:04;;;;;;;11.98;2.92;;;;;;;3.37;100.00;99155.56;5054320;28;20051;-78
2022/01/28 06:32:49;;;;;;;10.43;1.92;;;;;;;3.50;100.00;99181.34;5054310;28;20132;-79
2022/01/28 06:35:34;;;;;;;14.38;2.00;;;;;;;3.35;100.00;99176.28;5054316;28;20330;-78
2022/01/28 06:38:19;;;;;;;11.10;1.90;;;;;;;3.36;100.00;99213.41;5054196;28;20053;-79
2022/01/28 06:41:03;;;;;;;12.57;2.65;;;;;;;3.31;100.00;99212.53;5039360;28;20041;-79
2022/01/28 06:43:47;;;;;;;8.52;1.50;;;;;;;3.22;100.00;99200.53;5053256;28;20052;-80
2022/01/28 06:46:32;;;;;;;16.92;1.77;;;;;;;3.28;100.00;99203.06;5053939;28;20094;-79
2022/01/28 06:49:16;;;;;;;11.57;1.77;;;;;;;3.16;100.00;99211.75;5054173;28;20053;-79
2022/01/28 06:52:01;;;;;;;11.73;2.30;;;;;;;3.26;100.00;99203.09;5054098;28;20045;-79
2022/01/28 06:54:45;;;;;;;12.80;3.15;;;;;;;3.34;100.00;99226.31;5054236;28;20049;-79
2022/01/28 06:57:30;;;;;;;29.90;10.32;;;;;;;3.38;100.00;99209.94;5054628;28;20045;-78
2022/01/28 07:00:15;;;;;;;15.48;6.50;;;;;;;3.33;100.00;99231.53;5055415;28;20037;-79
2022/01/28 07:03:00;;;;;;;12.02;3.00;;;;;;;3.43;100.00;99221.09;5055225;28;20426;-79
2022/01/28 07:05:44;;;;;;;50.17;14.07;;;;;;;3.48;100.00;99228.88;5054557;28;20037;-78
2022/01/28 07:08:28;;;;;;;30.85;9.07;;;;;;;3.41;100.00;99237.50;5056000;28;20107;-79
2022/01/28 07:11:13;;;;;;;26.88;5.97;;;;;;;3.53;100.00;99245.22;5041286;28;20087;-79
2022/01/28 07:13:57;;;;;;;15.15;3.58;;;;;;;3.36;100.00;99240.13;5041017;28;20052;-79
2022/01/28 07:16:41;;;;;;;35.47;9.73;;;;;;;3.46;100.00;99248.72;5055347;28;20053;-78
2022/01/28 07:19:26;;;;;;;32.80;9.23;;;;;;;3.36;100.00;99258.25;5055914;28;20044;-80
2022/01/28 07:22:10;;;;;;;72.60;24.45;;;;;;;3.29;100.00;99266.94;5058940;28;20330;-79
2022/01/28 07:24:55;;;;;;;18.75;2.75;;;;;;;3.23;100.00;99270.38;5058835;28;20438;-79
2022/01/28 07:27:39;;;;;;;23.38;7.35;;;;;;;3.28;100.00;99276.44;5045246;28;20048;-78
2022/01/28 07:30:24;;;;;;;20.45;6.95;;;;;;;3.20;100.00;99285.06;5059748;28;20052;-79
2022/01/28 07:33:10;;;;;;;53.42;16.92;;;;;;;3.20;100.00;99290.25;5058858;28;20052;-79
2022/01/28 07:35:54;;;;;;;19.77;4.15;;;;;;;3.28;100.00;99306.59;5059437;28;20033;-79
2022/01/28 07:38:39;;;;;;;19.10;2.60;;;;;;;3.27;100.00;99308.34;5059816;28;20041;-79
2022/01/28 07:41:23;;;;;;;58.28;18.75;;;;;;;3.19;100.00;99317.00;5058540;28;20045;-79
2022/01/28 07:44:07;;;;;;;21.13;6.50;;;;;;;3.22;100.00;99306.66;5058526;28;20045;-78
2022/01/28 07:46:52;;;;;;;16.25;4.18;;;;;;;3.19;100.00;99325.63;5044892;28;20041;-78
2022/01/28 07:49:36;;;;;;;18.63;3.50;;;;;;;3.18;100.00;99326.47;5059375;28;20048;-80
2022/01/28 07:52:21;;;;;;;96.93;67.20;;;;;;;3.08;100.00;99342.91;5059657;28;20410;-79
2022/01/28 07:55:06;;;;;;;41.75;16.17;;;;;;;3.15;100.00;99354.97;5058353;28;20319;-79
2022/01/28 07:57:51;;;;;;;49.55;28.45;;;;;;;3.19;100.00;99351.50;5058029;28;20057;-79
2022/01/28 08:00:35;;;;;;;29.67;12.00;;;;;;;3.35;100.00;99366.97;5058958;28;20040;-79
2022/01/28 08:03:19;;;;;;;62.17;47.25;;;;;;;3.38;100.00;99364.38;5059378;28;20095;-78
2022/01/28 08:06:04;;;;;;;336.88;228.73;;;;;;;3.33;100.00;99371.31;5059395;28;20199;-79
2022/01/28 08:08:48;;;;;;;359.30;231.80;;;;;;;3.35;100.00;99366.97;5058350;28;20045;-78
2022/01/28 08:11:32;;;;;;;508.58;318.05;;;;;;;3.34;100.00;99373.88;5058572;28;20120;-79
2022/01/28 08:14:17;;;;;;;539.08;346.50;;;;;;;3.34;100.00;99379.06;5058766;28;20349;-79
2022/01/28 08:17:01;;;;;;;953.33;472.15;;;;;;;3.45;100.00;99387.69;5057935;28;20045;-78
2022/01/28 08:19:46;;;;;;;95.55;44.60;;;;;;;3.45;100.00;99384.25;5057846;28;20037;-79
2022/01/28 08:22:30;;;;;;;155.82;90.43;;;;;;;3.28;100.00;99379.97;5057707;28;20357;-78
2022/01/28 08:25:16;;;;;;;111.07;58.38;;;;;;;3.44;100.00;99400.63;5057756;28;20052;-79
2022/01/28 08:28:02;;;;;;;156.80;63.75;;;;;;;3.42;100.00;99403.22;5058394;28;20041;-80
2022/01/28 08:30:47;;;;;;;30.02;15.93;;;;;;;3.31;100.00;99404.97;5057735;28;20037;-79
2022/01/28 08:33:31;;;;;;;17.50;5.28;;;;;;;3.24;100.00;99421.38;5058187;28;20040;-81
2022/01/28 08:36:16;;;;;;;77.55;29.83;;;;;;;3.38;100.00;99419.63;5057592;28;20041;-78
2022/01/28 08:39:04;;;;;;;27.27;7.97;;;;;;;3.36;100.00;99433.44;5057391;28;20083;-79
2022/01/28 08:41:48;;;;;;;25.75;9.68;;;;;;;3.37;100.00;99406.69;5058076;28;20410;-79
2022/01/28 08:44:33;;;;;;;20.73;6.82;;;;;;;3.46;100.00;99422.19;5058727;28;20052;-81
2022/01/28 08:47:17;;;;;;;25.75;13.73;;;;;;;3.34;100.00;99417.03;5057467;28;20052;-79
2022/01/28 08:50:02;;;;;;;29.38;11.07;;;;;;;3.45;100.00;99429.13;5057421;28;20087;-78
2022/01/28 08:52:47;;;;;;;12.98;5.72;;;;;;;3.42;100.00;99449.84;5043265;28;20159;-79
2022/01/28 08:55:31;;;;;;;21.98;6.45;;;;;;;3.30;100.00;99454.16;5057720;28;20045;-79
2022/01/28 08:58:16;;;;;;;17.15;4.07;;;;;;;3.54;100.00;99441.16;5057131;28;20049;-79
2022/01/28 09:01:00;;;;;;;28.25;11.15;;;;;;;3.51;100.00;99462.75;5057755;28;20430;-80
2022/01/28 09:03:46;;;;;;;69.72;30.10;;;;;;;3.47;100.00;99461.03;5057657;28;20056;-79
2022/01/28 09:06:30;;;;;;;93.05;46.05;;;;;;;3.50;100.00;99473.09;5057860;28;20119;-80
2022/01/28 09:09:14;;;;;;;45.60;27.60;;;;;;;3.58;100.00;99484.34;5043060;28;20049;-80
2022/01/28 09:14:44;;;;;;;43.58;21.23;;;;;;;3.54;100.00;99492.94;5057537;28;20044;-78
2022/01/28 09:17:28;;;;;;;53.03;22.08;;;;;;;3.67;100.00;99504.16;5057456;28;20036;-78
2022/01/28 09:20:12;;;;;;;82.88;33.25;;;;;;;3.65;100.00;99498.13;5056780;28;20045;-78
2022/01/28 09:22:59;;;;;;;33.85;15.07;;;;;;;3.72;100.00;99505.88;5056361;28;20056;-78
2022/01/28 09:25:44;;;;;;;27.58;11.10;;;;;;;3.74;100.00;99511.94;5056735;28;20079;-77
2022/01/28 09:28:28;;;;;;;23.60;10.70;;;;;;;3.70;100.00;99528.31;5054778;28;20045;-77
2022/01/28 09:31:13;;;;;;;19.05;6.72;;;;;;;3.73;100.00;99515.38;5055394;28;20098;-78
2022/01/28 09:33:57;;;;;;;24.48;8.02;;;;;;;3.78;100.00;99546.47;5083151;28;20040;-78
2022/01/28 09:36:43;;;;;;;19.65;7.13;;;;;;;3.81;100.00;99532.66;5040682;28;20356;-78
2022/01/28 09:39:30;;;;;;;76.25;29.00;;;;;;;3.72;100.00;99534.38;5026475;28;20441;-78
2022/01/28 09:42:16;;;;;;;84.70;29.05;;;;;;;3.77;100.00;99552.50;5054026;28;20476;-76
2022/01/28 09:45:03;;;;;;;53.38;18.70;;;;;;;3.56;100.00;99517.13;5054559;28;20104;-77
2022/01/28 09:47:51;;;;;;;82.45;26.80;;;;;;;3.72;100.00;99570.63;5054906;28;20040;-78
2022/01/28 09:50:36;;;;;;;57.30;19.70;;;;;;;3.69;100.00;99541.28;5055444;28;20655;-78
2022/01/28 09:53:20;;;;;;;21.42;8.90;;;;;;;3.77;100.00;99560.28;5055455;28;20045;-78
2022/01/28 09:56:05;;;;;;;36.15;13.45;;;;;;;3.72;100.00;99570.63;5055458;28;20045;-79
2022/01/28 09:58:49;;;;;;;45.28;16.25;;;;;;;3.79;100.00;99576.66;5055103;28;20048;-78
2022/01/28 10:01:33;;;;;;;21.02;5.38;;;;;;;3.81;100.00;99577.53;5055852;28;20120;-79
2022/01/28 10:04:18;;;;;;;35.72;11.77;;;;;;;3.84;100.00;99571.50;5084832;28;20052;-79
2022/01/28 10:07:10;;;;;;;37.47;13.27;;;;;;;3.74;100.00;99566.34;5041830;28;20041;-78
2022/01/28 10:09:58;;;;;;;10.98;3.45;;;;;;;3.77;100.00;99581.00;5056436;28;20057;-78
2022/01/28 10:12:50;;;;;;;18.70;6.05;;;;;;;3.86;100.00;99595.66;5055815;28;20048;-78
2022/01/28 10:15:34;;;;;;;25.08;6.72;;;;;;;3.85;100.00;99589.63;5056699;28;20114;-78
2022/01/28 10:18:19;;;;;;;27.08;8.48;;;;;;;3.85;100.00;99594.81;5027682;28;20045;-78
2022/01/28 10:21:20;;;;;;;24.10;7.10;;;;;;;3.85;100.00;99601.72;5055623;28;20063;-79
2022/01/28 10:24:17;;;;;;;31.23;12.70;;;;;;;3.84;100.00;99618.13;5055986;28;20037;-78
2022/01/28 10:27:07;;;;;;;113.82;34.72;;;;;;;3.74;100.00;99617.28;5056542;28;20056;-79
2022/01/28 10:29:51;;;;;;;33.42;8.60;;;;;;;3.78;100.00;99631.09;5055845;28;20040;-78
2022/01/28 10:32:35;;;;;;;81.20;22.90;;;;;;;3.69;100.00;99608.63;5055557;28;20044;-79
2022/01/28 10:35:32;;;;;;;82.65;22.00;;;;;;;3.63;100.00;99631.94;5056061;28;20040;-78
2022/01/28 10:38:34;;;;;;;99.47;25.48;;;;;;;3.53;100.00;99638.84;5055333;28;20102;-77
2022/01/28 10:41:25;;;;;;;134.07;36.95;;;;;;;3.63;100.00;99645.75;5055215;28;20048;-78
2022/01/28 10:44:11;;;;;;;73.15;19.88;;;;;;;3.61;100.00;99657.88;5055781;28;20052;-77
2022/01/28 10:46:59;;;;;;;44.78;11.52;;;;;;;3.63;100.00;99640.56;5055430;28;20045;-78
2022/01/28 10:49:44;;;;;;;82.00;23.77;;;;;;;3.59;100.00;99659.56;5055212;28;20053;-77
2022/01/28 10:52:35;;;;;;;51.80;14.90;;;;;;;3.68;100.00;99669.09;5055422;28;20044;-79
2022/01/28 10:55:20;;;;;;;94.15;28.35;;;;;;;3.64;100.00;99676.00;5056274;28;20045;-78
2022/01/28 10:58:14;;;;;;;86.55;26.85;;;;;;;3.81;100.00;99685.50;5055307;28;20064;-78
2022/01/28 11:00:59;;;;;;;64.70;19.85;;;;;;;3.73;100.00;99663.03;5055932;28;20044;-78
2022/01/28 11:03:44;;;;;;;43.47;11.57;;;;;;;3.72;100.00;99669.09;5055581;28;20048;-78
2022/01/28 11:06:30;;;;;;;49.28;14.55;;;;;;;3.89;100.00;99668.22;5054913;28;20041;-79
2022/01/28 11:09:17;;;;;;;33.92;9.88;;;;;;;3.93;100.00;99694.16;5056378;28;20127;-78
2022/01/28 11:12:02;;;;;;;15.82;5.45;;;;;;;3.98;100.00;99689.81;5055563;28;20402;-79
2022/01/28 11:14:48;;;;;;;111.40;39.55;;;;;;;4.07;100.00;99686.34;5055253;28;20441;-78
2022/01/28 11:17:32;;;;;;;28.70;9.75;;;;;;;4.23;100.00;99702.78;5055651;28;20052;-78
2022/01/28 11:20:29;;;;;;;36.63;13.65;;;;;;;4.09;100.00;99694.97;5054975;28;20375;-78
2022/01/28 11:23:36;;;;;;;31.33;10.85;;;;;;;4.20;100.00;99707.97;5054907;28;20400;-78
2022/01/28 11:26:50;;;;;;;16.25;4.68;;;;;;;4.22;100.00;99703.63;5055634;28;20433;-78
2022/01/28 11:29:35;;;;;;;17.45;5.10;;;;;;;4.07;100.00;99677.72;5040712;28;20464;-78
2022/01/28 11:32:19;;;;;;;24.73;6.70;;;;;;;4.13;100.00;99716.59;5054944;28;20036;-78
2022/01/28 11:35:10;;;;;;;15.70;4.97;;;;;;;4.19;100.00;99729.53;5055631;28;20045;-78
2022/01/28 11:38:01;;;;;;;12.52;3.92;;;;;;;4.09;100.00;99700.16;5054771;28;20344;-78
2022/01/28 11:40:52;;;;;;;32.33;10.30;;;;;;;4.17;100.00;99726.09;5055389;28;20045;-78
2022/01/28 11:43:49;;;;;;;28.67;9.52;;;;;;;4.15;100.00;99735.59;5055113;28;20131;-78
2022/01/28 11:46:37;;;;;;;22.63;5.45;;;;;;;4.22;100.00;99745.09;5055035;28;20377;-78
2022/01/28 11:49:22;;;;;;;15.27;4.88;;;;;;;4.09;100.00;99741.63;5055595;28;20045;-78
2022/01/28 11:52:27;;;;;;;19.77;3.25;;;;;;;4.19;100.00;99746.00;5040719;28;20065;-78
2022/01/28 11:55:15;;;;;;;11.20;3.22;;;;;;;4.20;100.00;99757.22;5040626;28;20049;-77
2022/01/28 11:58:08;;;;;;;12.18;3.13;;;;;;;4.24;100.00;99764.13;5054401;28;20049;-78
2022/01/28 12:00:55;;;;;;;12.55;4.20;;;;;;;4.04;100.00;99729.56;5026581;28;20063;-78
2022/01/28 12:03:39;;;;;;;15.90;5.22;;;;;;;4.13;100.00;99747.72;5054486;28;20349;-78
2022/01/28 12:06:23;;;;;;;13.90;3.42;;;;;;;4.14;100.00;99752.03;5056622;28;20039;-78
2022/01/28 12:09:08;;;;;;;14.63;3.33;;;;;;;4.27;100.00;99777.09;5058752;28;20112;-78
2022/01/28 12:11:53;;;;;;;12.27;3.13;;;;;;;4.41;100.00;99766.69;5059279;28;20045;-78
2022/01/28 12:15:09;;;;;;;10.73;2.95;;;;;;;4.33;100.00;99784.88;5043954;28;20048;-79
2022/01/28 12:18:11;;;;;;;11.05;2.63;;;;;;;4.34;100.00;99781.41;5057986;28;20124;-78
2022/01/28 12:20:58;;;;;;;13.77;2.13;;;;;;;4.36;100.00;99789.19;5059204;28;20041;-79
2022/01/28 12:23:44;;;;;;;10.27;2.80;;;;;;;4.29;100.00;99798.72;5059116;28;20060;-78
2022/01/28 12:26:59;;;;;;;8.95;2.65;;;;;;;4.31;100.00;99801.28;5057795;28;20342;-79
2022/01/28 12:29:47;;;;;;;12.52;3.60;;;;;;;4.26;100.00;99808.19;5057637;28;20045;-79
2022/01/28 12:32:32;;;;;;;16.77;5.30;;;;;;;4.31;100.00;99815.13;5043781;28;20108;-78
2022/01/28 12:35:18;;;;;;;21.55;8.90;;;;;;;4.25;100.00;99796.94;5058608;28;20045;-78
2022/01/28 12:38:04;;;;;;;28.63;12.80;;;;;;;4.28;100.00;99807.31;5044000;28;20045;-78
2022/01/28 12:40:52;;;;;;;17.05;6.13;;;;;;;4.29;100.00;99805.59;5043949;28;20064;-78
2022/01/28 12:43:38;;;;;;;16.50;4.45;;;;;;;4.12;100.00;99772.75;5043998;28;20045;-78
2022/01/28 12:46:26;;;;;;;16.15;5.55;;;;;;;4.29;100.00;99818.56;5043806;28;20055;-76
2022/01/28 12:49:10;;;;;;;20.15;4.38;;;;;;;4.30;100.00;99810.78;5057729;28;20114;-78
2022/01/28 12:51:57;;;;;;;14.93;3.80;;;;;;;4.39;100.00;99807.34;5057827;28;20414;-78
2022/01/28 12:54:44;;;;;;;17.48;4.35;;;;;;;4.32;100.00;99803.91;5057183;28;20044;-77
2022/01/28 12:57:28;;;;;;;12.93;3.45;;;;;;;4.40;100.00;99806.47;5058152;28;20131;-78
2022/01/28 13:00:14;;;;;;;13.55;3.30;;;;;;;4.47;100.00;99817.72;5058236;28;20422;-78
2022/01/28 13:02:58;;;;;;;11.10;3.30;;;;;;;4.54;100.00;99816.84;5057299;28;20045;-78
2022/01/28 13:05:54;;;;;;;15.85;3.92;;;;;;;4.57;100.00;99820.28;5057065;28;20045;-78
2022/01/28 13:08:41;;;;;;;13.10;2.65;;;;;;;4.67;100.00;99836.72;5057924;28;20044;-78
2022/01/28 13:11:27;;;;;;;11.65;3.13;;;;;;;4.49;100.00;99828.97;5057395;28;20052;-78
2022/01/28 13:14:14;;;;;;;7.90;1.90;;;;;;;4.64;100.00;99849.69;5057277;28;20041;-78
2022/01/28 13:17:01;;;;;;;13.73;3.90;;;;;;;4.49;100.00;99852.31;5057336;28;20041;-78
2022/01/28 13:19:59;;;;;;;15.95;5.13;;;;;;;4.46;100.00;99850.56;5057126;28;20037;-78
2022/01/28 13:22:49;;;;;;;10.80;3.08;;;;;;;4.39;100.00;99847.13;5042978;28;20049;-78
2022/01/28 13:25:33;;;;;;;27.35;9.25;;;;;;;4.41;100.00;99854.88;5042850;28;20061;-78
2022/01/28 13:28:19;;;;;;;10.13;2.13;;;;;;;4.41;100.00;99862.66;5057338;28;20052;-79
2022/01/28 13:31:03;;;;;;;9.88;2.10;;;;;;;4.44;100.00;99873.91;5057505;28;20037;-79
2022/01/28 13:33:57;;;;;;;15.65;3.75;;;;;;;4.40;100.00;99876.50;5056748;28;20045;-78
2022/01/28 13:36:50;;;;;;;11.35;3.22;;;;;;;4.34;100.00;99879.09;5057375;28;20041;-78
2022/01/28 13:39:41;;;;;;;;;;;;;;;4.30;100.00;99896.38;5042803;28;20041;-77
2022/01/28 13:42:25;;;;;;;22.35;6.13;;;;;;;4.32;100.00;99873.91;5042550;28;19920;-78
2022/01/28 13:45:10;;;;;;;20.40;6.65;;;;;;;4.34;100.00;99886.88;5057001;28;20060;-78
2022/01/28 13:47:54;;;;;;;11.73;2.30;;;;;;;4.45;100.00;99892.91;5057294;28;20349;-79
2022/01/28 13:50:42;;;;;;;20.20;4.93;;;;;;;4.35;100.00;99891.19;5056065;28;20037;-78
2022/01/28 13:56:13;;;;;;;15.98;5.03;;;;;;;4.47;100.00;99913.69;5056524;28;20052;-78
2022/01/28 13:58:57;;;;;;;15.80;3.67;;;;;;;4.36;100.00;99904.16;5055762;28;20588;-78
2022/01/28 14:01:47;;;;;;;10.18;3.10;;;;;;;4.40;100.00;99913.66;5055863;28;20041;-79
2022/01/28 14:04:38;;;;;;;10.63;4.60;;;;;;;4.35;100.00;99906.75;5055765;28;20041;-78
2022/01/28 14:07:26;;;;;;;9.85;3.40;;;;;;;4.39;100.00;99921.47;5056842;28;20041;-79
2022/01/28 14:10:15;;;;;;;8.00;2.67;;;;;;;4.40;100.00;99933.56;5042241;28;20190;-79
2022/01/28 14:13:18;;;;;;;13.20;3.63;;;;;;;4.32;100.00;99914.50;5055583;28;20044;-79
2022/01/28 14:16:14;;;;;;;13.83;4.93;;;;;;;4.45;100.00;99934.41;5056408;28;20386;-78
2022/01/28 14:18:58;;;;;;;12.07;2.60;;;;;;;4.37;100.00;99939.59;5041479;28;20353;-78
2022/01/28 14:21:44;;;;;;;11.10;2.42;;;;;;;4.35;100.00;99959.47;5041529;28;20345;-79
2022/01/28 14:24:35;;;;;;;9.63;3.15;;;;;;;4.37;100.00;99973.31;5055457;28;20122;-78
2022/01/28 14:33:00;;;;;;;10.68;2.30;;;;;;;4.32;100.00;99975.03;5055903;28;20056;-79